Time;durP1;ratioP1;P1;durP2;ratioP2;P2;SDS_P1;SDS_P2;PMS_P1;PMS_P2;Temp;Humidity;BMP_temperature;BMP_pressure;BME280_temperature;BME280_humidity;BME280_pressure;Samples;Min_cycle;Max_cycle;Signal;HPM_P1;HPM_P2
2019/12/06 00:02:44;;;;;;;7.50;6.71;;;;;;;19.71;39.07;101073.96;;;;-50
2019/12/06 00:05:44;;;;;;;7.61;6.81;;;;;;;19.69;38.99;101067.59;;;;-50
2019/12/06 00:08:44;;;;;;;7.28;6.36;;;;;;;19.67;39.03;101074.36;;;;-51
2019/12/06 00:11:44;;;;;;;7.68;6.88;;;;;;;19.66;39.11;101072.11;;;;-50
2019/12/06 00:14:43;;;;;;;7.98;6.74;;;;;;;19.63;39.07;101067.67;;;;-50
2019/12/06 00:17:44;;;;;;;7.93;6.77;;;;;;;19.61;39.16;101072.36;;;;-51
2019/12/06 00:20:44;;;;;;;7.47;6.56;;;;;;;19.59;39.08;101064.98;;;;-51
2019/12/06 00:23:44;;;;;;;7.76;6.75;;;;;;;19.58;39.13;101064.83;;;;-51
2019/12/06 00:26:44;;;;;;;7.69;6.81;;;;;;;19.56;39.08;101061.36;;;;-50
2019/12/06 00:29:43;;;;;;;7.56;6.71;;;;;;;19.55;39.09;101065.43;;;;-51
2019/12/06 00:32:44;;;;;;;7.43;6.67;;;;;;;19.54;39.14;101060.91;;;;-50
2019/12/06 00:35:44;;;;;;;7.53;6.73;;;;;;;19.51;39.14;101057.28;;;;-51
2019/12/06 00:38:44;;;;;;;7.77;6.91;;;;;;;19.50;39.14;101057.56;;;;-50
2019/12/06 00:41:44;;;;;;;7.06;6.36;;;;;;;19.48;39.09;101054.17;;;;-50
2019/12/06 00:44:44;;;;;;;7.27;6.50;;;;;;;19.47;39.18;101056.69;;;;-51
2019/12/06 00:47:44;;;;;;;7.48;6.65;;;;;;;19.45;39.05;101050.76;;;;-51
2019/12/06 00:50:44;;;;;;;7.75;6.95;;;;;;;19.44;39.18;101050.20;;;;-50
2019/12/06 00:53:44;;;;;;;9.07;7.08;;;;;;;19.43;39.17;101053.78;;;;-51
2019/12/06 00:56:43;;;;;;;7.53;6.67;;;;;;;19.40;39.19;101054.06;;;;-50
2019/12/06 00:59:44;;;;;;;8.05;7.09;;;;;;;19.38;39.17;101054.86;;;;-50
2019/12/06 01:02:46;;;;;;;8.01;6.90;;;;;;;19.36;39.12;101047.20;;;;-51
2019/12/06 01:05:53;;;;;;;7.43;6.63;;;;;;;19.36;39.12;101041.29;;;;-51
2019/12/06 01:11:48;;;;;;;7.27;6.57;;;;;;;19.33;39.19;101036.20;;;;-50
2019/12/06 01:14:43;;;;;;;7.99;6.75;;;;;;;19.31;39.18;101027.72;;;;-51
2019/12/06 01:17:44;;;;;;;7.27;6.44;;;;;;;19.30;39.11;101024.82;;;;-50
2019/12/06 01:20:44;;;;;;;7.23;6.51;;;;;;;19.28;39.22;101024.78;;;;-50
2019/12/06 01:23:44;;;;;;;7.71;6.91;;;;;;;19.27;39.16;101030.28;;;;-50
2019/12/06 01:26:44;;;;;;;7.48;6.70;;;;;;;19.26;39.25;101035.49;;;;-50
2019/12/06 01:29:44;;;;;;;8.00;6.94;;;;;;;19.25;39.20;101034.19;;;;-50
2019/12/06 01:32:43;;;;;;;7.19;6.47;;;;;;;19.23;39.24;101031.97;;;;-50
2019/12/06 01:35:43;;;;;;;7.56;6.65;;;;;;;19.21;39.15;101032.47;;;;-51
2019/12/06 01:38:44;;;;;;;7.22;6.52;;;;;;;19.20;39.30;101031.80;;;;-50
2019/12/06 01:41:44;;;;;;;7.09;6.39;;;;;;;19.19;39.16;101036.87;;;;-50
2019/12/06 01:44:44;;;;;;;7.97;6.71;;;;;;;19.19;39.26;101039.78;;;;-51
2019/12/06 01:47:44;;;;;;;7.51;6.74;;;;;;;19.17;39.20;101034.86;;;;-50
2019/12/06 01:50:44;;;;;;;7.57;6.79;;;;;;;19.16;39.25;101035.14;;;;-50
2019/12/06 01:53:43;;;;;;;7.61;6.81;;;;;;;19.15;39.19;101037.12;;;;-50
2019/12/06 01:56:44;;;;;;;7.65;6.86;;;;;;;19.13;39.19;101034.46;;;;-50
2019/12/06 01:59:44;;;;;;;7.26;6.56;;;;;;;19.12;39.23;101034.95;;;;-50
2019/12/06 02:02:44;;;;;;;7.41;6.71;;;;;;;19.10;39.24;101032.05;;;;-50
2019/12/06 02:05:44;;;;;;;7.25;6.53;;;;;;;19.08;39.23;101023.02;;;;-50
2019/12/06 02:08:43;;;;;;;7.15;6.37;;;;;;;19.08;39.23;101017.81;;;;-51
2019/12/06 02:11:43;;;;;;;7.47;6.61;;;;;;;19.07;39.28;101024.30;;;;-50
2019/12/06 02:14:44;;;;;;;7.60;6.80;;;;;;;19.05;39.31;101030.11;;;;-50
2019/12/06 02:17:44;;;;;;;7.14;6.44;;;;;;;19.04;39.25;101016.33;;;;-50
2019/12/06 02:20:44;;;;;;;7.59;6.79;;;;;;;19.03;39.22;101013.80;;;;-50
2019/12/06 02:23:44;;;;;;;7.67;6.87;;;;;;;19.02;39.17;101005.59;;;;-50
2019/12/06 02:26:44;;;;;;;7.49;6.63;;;;;;;19.00;39.33;101001.48;;;;-51
2019/12/06 02:29:44;;;;;;;7.17;6.47;;;;;;;18.99;39.29;101007.21;;;;-50
2019/12/06 02:32:44;;;;;;;7.33;6.58;;;;;;;18.98;39.49;101002.65;;;;-50
2019/12/06 02:35:44;;;;;;;7.69;6.76;;;;;;;18.98;39.35;100998.95;;;;-50
2019/12/06 02:38:44;;;;;;;7.67;6.51;;;;;;;18.97;39.32;100996.63;;;;-50
2019/12/06 02:41:44;;;;;;;7.65;6.86;;;;;;;18.97;39.44;100997.05;;;;-50
2019/12/06 02:50:49;;;;;;;7.22;6.51;;;;;;;18.93;39.39;100989.91;;;;-50
2019/12/06 02:53:44;;;;;;;7.20;6.50;;;;;;;18.92;39.39;100988.42;;;;-50
2019/12/06 02:56:45;;;;;;;7.74;6.72;;;;;;;18.91;39.48;100978.83;;;;-51
2019/12/06 02:59:44;;;;;;;7.54;6.52;;;;;;;18.90;39.43;100975.36;;;;-51
2019/12/06 03:02:44;;;;;;;7.31;6.58;;;;;;;18.89;39.38;100973.70;;;;-50
2019/12/06 03:24:11;;;;;;;7.09;6.38;;;;;;;18.82;39.51;100961.48;;;;-50
2019/12/06 03:27:11;;;;;;;7.41;6.68;;;;;;;18.81;39.42;100959.30;;;;-50
2019/12/06 03:30:10;;;;;;;6.91;6.21;;;;;;;18.79;39.57;100959.19;;;;-50
2019/12/06 03:33:10;;;;;;;7.28;6.58;;;;;;;18.79;39.49;100949.80;;;;-50
2019/12/06 03:36:10;;;;;;;7.29;6.33;;;;;;;18.77;39.62;100948.59;;;;-50
2019/12/06 03:39:11;;;;;;;7.00;6.30;;;;;;;18.75;39.53;100941.67;;;;-50
2019/12/06 03:42:11;;;;;;;7.19;6.49;;;;;;;18.75;39.59;100947.98;;;;-50
2019/12/06 03:45:11;;;;;;;6.98;6.28;;;;;;;18.73;39.60;100950.26;;;;-50
2019/12/06 03:48:10;;;;;;;6.99;6.29;;;;;;;18.73;39.57;100942.39;;;;-50
2019/12/06 03:51:10;;;;;;;7.23;6.53;;;;;;;18.72;39.55;100950.59;;;;-50
2019/12/06 03:54:11;;;;;;;6.81;6.11;;;;;;;18.71;39.62;100951.37;;;;-50
2019/12/06 03:57:11;;;;;;;6.81;6.11;;;;;;;18.70;39.68;100945.23;;;;-50
2019/12/06 04:00:11;;;;;;;6.93;6.23;;;;;;;18.70;39.53;100943.22;;;;-50
2019/12/06 04:03:13;;;;;;;6.94;6.24;;;;;;;18.67;39.69;100941.95;;;;-50
2019/12/06 04:06:12;;;;;;;6.84;6.10;;;;;;;18.66;39.64;100934.20;;;;-50
2019/12/06 04:09:10;;;;;;;7.13;6.43;;;;;;;18.66;39.66;100935.05;;;;-50
2019/12/06 04:15:32;;;;;;;7.43;6.54;;;;;;;18.64;39.55;100934.59;;;;-50
2019/12/06 04:18:11;;;;;;;7.35;6.63;;;;;;;18.63;39.65;100933.80;;;;-50
2019/12/06 04:21:11;;;;;;;7.01;6.31;;;;;;;18.62;39.62;100932.30;;;;-50
2019/12/06 04:24:11;;;;;;;6.93;6.23;;;;;;;18.62;39.73;100931.30;;;;-50
2019/12/06 04:27:11;;;;;;;6.84;6.14;;;;;;;18.61;39.67;100937.59;;;;-50
2019/12/06 04:30:11;;;;;;;7.37;6.04;;;;;;;18.59;39.66;100929.45;;;;-50
2019/12/06 04:33:11;;;;;;;6.97;6.27;;;;;;;18.58;39.63;100929.69;;;;-50
2019/12/06 04:36:11;;;;;;;7.01;6.31;;;;;;;18.58;39.75;100929.34;;;;-50
2019/12/06 04:39:11;;;;;;;7.03;6.12;;;;;;;18.58;39.71;100930.80;;;;-50
2019/12/06 04:42:11;;;;;;;7.04;6.34;;;;;;;18.58;39.65;100931.74;;;;-50
2019/12/06 04:45:10;;;;;;;12.92;9.71;;;;;;;18.44;37.74;100932.06;;;;-51
2019/12/06 04:48:10;;;;;;;15.41;12.83;;;;;;;18.16;36.57;100932.59;;;;-51
2019/12/06 04:51:10;;;;;;;17.79;14.59;;;;;;;18.02;35.83;100932.51;;;;-51
2019/12/06 04:54:11;;;;;;;19.00;15.95;;;;;;;17.87;35.33;100933.34;;;;-51
2019/12/06 04:57:11;;;;;;;20.27;16.72;;;;;;;17.71;34.81;100936.13;;;;-51
2019/12/06 05:00:11;;;;;;;20.23;16.95;;;;;;;17.58;34.72;100938.51;;;;-51
2019/12/06 05:03:10;;;;;;;20.44;17.24;;;;;;;17.48;34.47;100935.97;;;;-50
2019/12/06 05:06:10;;;;;;;21.51;17.65;;;;;;;17.35;34.19;100939.30;;;;-51
2019/12/06 05:09:11;;;;;;;21.71;17.26;;;;;;;17.27;34.28;100940.27;;;;-52
2019/12/06 05:12:11;;;;;;;20.87;17.79;;;;;;;17.16;34.18;100936.86;;;;-50
2019/12/06 05:15:11;;;;;;;20.53;16.75;;;;;;;17.21;34.73;100929.84;;;;-47
2019/12/06 05:18:11;;;;;;;16.75;14.15;;;;;;;17.43;35.67;100919.18;;;;-48
2019/12/06 05:21:11;;;;;;;17.22;12.87;;;;;;;17.58;36.11;100919.54;;;;-45
2019/12/06 05:24:10;;;;;;;16.08;12.17;;;;;;;17.69;36.32;100911.13;;;;-46
2019/12/06 05:27:14;;;;;;;15.37;12.37;;;;;;;17.77;36.48;100913.94;;;;-47
2019/12/06 05:30:10;;;;;;;14.23;11.53;;;;;;;17.82;36.72;100910.27;;;;-48
2019/12/06 05:33:15;;;;;;;13.47;11.17;;;;;;;17.84;36.79;100904.94;;;;-48
2019/12/06 05:36:11;;;;;;;12.43;10.45;;;;;;;17.87;36.90;100906.67;;;;-48
2019/12/06 05:39:11;;;;;;;12.14;10.05;;;;;;;17.87;37.05;100907.45;;;;-51
2019/12/06 05:42:10;;;;;;;12.10;9.67;;;;;;;17.88;37.22;100902.82;;;;-51
2019/12/06 05:45:10;;;;;;;11.60;9.88;;;;;;;17.88;37.36;100902.21;;;;-51
2019/12/06 05:48:11;;;;;;;11.17;9.35;;;;;;;17.87;37.49;100900.50;;;;-50
2019/12/06 05:51:10;;;;;;;10.34;8.77;;;;;;;17.88;37.53;100901.05;;;;-51
2019/12/06 05:54:11;;;;;;;10.21;8.82;;;;;;;17.88;37.62;100907.07;;;;-50
2019/12/06 05:57:11;;;;;;;11.09;8.72;;;;;;;17.89;37.74;100904.78;;;;-57
2019/12/06 06:00:10;;;;;;;10.25;8.57;;;;;;;17.89;37.80;100904.06;;;;-57
2019/12/06 06:03:10;;;;;;;9.50;8.31;;;;;;;17.90;37.88;100905.02;;;;-57
2019/12/06 06:06:10;;;;;;;10.17;8.29;;;;;;;17.91;37.90;100905.23;;;;-57
2019/12/06 06:09:11;;;;;;;9.73;8.29;;;;;;;17.91;37.98;100902.72;;;;-57
2019/12/06 06:12:11;;;;;;;9.75;7.82;;;;;;;17.92;38.04;100907.29;;;;-57
2019/12/06 06:15:11;;;;;;;9.72;8.06;;;;;;;17.92;38.08;100908.58;;;;-57
2019/12/06 06:18:10;;;;;;;9.29;7.81;;;;;;;17.93;38.10;100908.35;;;;-57
2019/12/06 06:21:10;;;;;;;8.39;7.49;;;;;;;17.93;38.15;100915.88;;;;-57
2019/12/06 06:24:10;;;;;;;8.61;7.67;;;;;;;17.93;38.18;100917.95;;;;-57
2019/12/06 06:27:10;;;;;;;8.33;7.31;;;;;;;17.93;38.22;100918.39;;;;-56
2019/12/06 06:30:11;;;;;;;8.64;7.57;;;;;;;17.93;38.22;100916.16;;;;-57
2019/12/06 06:33:11;;;;;;;7.85;7.02;;;;;;;17.93;38.30;100901.83;;;;-57
2019/12/06 06:36:11;;;;;;;8.66;7.55;;;;;;;17.94;38.33;100895.88;;;;-56
2019/12/06 06:39:10;;;;;;;8.72;7.43;;;;;;;17.95;38.33;100900.69;;;;-57
2019/12/06 06:42:10;;;;;;;9.75;7.23;;;;;;;17.94;38.35;100901.05;;;;-57
2019/12/06 06:45:10;;;;;;;8.54;7.31;;;;;;;17.94;38.39;100896.83;;;;-51
2019/12/06 06:48:44;;;;;;;8.13;7.19;;;;;;;17.94;38.40;100903.91;;;;-51
2019/12/06 06:51:10;;;;;;;7.71;6.91;;;;;;;17.95;38.43;100906.96;;;;-51
2019/12/06 06:54:11;;;;;;;7.83;7.03;;;;;;;17.95;38.44;100910.55;;;;-48
2019/12/06 06:57:10;;;;;;;7.55;6.75;;;;;;;17.95;38.48;100908.08;;;;-48
2019/12/06 07:00:10;;;;;;;7.85;6.94;;;;;;;17.96;38.46;100917.66;;;;-48
2019/12/06 07:03:10;;;;;;;8.62;7.28;;;;;;;17.94;38.50;100913.25;;;;-51
2019/12/06 07:06:10;;;;;;;7.70;6.77;;;;;;;17.94;38.51;100918.51;;;;-51
2019/12/06 07:09:11;;;;;;;7.49;6.61;;;;;;;17.93;38.57;100919.66;;;;-51
2019/12/06 07:12:11;;;;;;;7.16;6.45;;;;;;;17.94;38.56;100923.23;;;;-48
2019/12/06 07:15:13;;;;;;;7.33;6.61;;;;;;;17.95;38.58;100927.70;;;;-48
2019/12/06 07:18:10;;;;;;;7.43;6.48;;;;;;;17.95;38.61;100935.55;;;;-49
2019/12/06 07:21:10;;;;;;;7.61;6.79;;;;;;;17.96;38.55;100924.24;;;;-57
2019/12/06 07:24:47;;;;;;;7.00;6.27;;;;;;;17.95;38.60;100919.66;;;;-57
2019/12/06 07:27:21;;;;;;;7.80;6.41;;;;;;;17.99;39.01;100916.84;;;;-51
2019/12/06 07:30:11;;;;;;;7.79;6.30;;;;;;;18.00;38.90;100918.02;;;;-52
2019/12/06 07:33:11;;;;;;;7.43;6.68;;;;;;;18.00;39.12;100915.73;;;;-52
2019/12/06 07:36:10;;;;;;;9.67;6.40;;;;;;;18.04;39.03;100915.95;;;;-56
2019/12/06 07:39:10;;;;;;;9.21;6.39;;;;;;;18.04;39.52;100921.47;;;;-56
2019/12/06 07:42:10;;;;;;;8.46;6.43;;;;;;;18.06;39.85;100927.56;;;;-49
2019/12/06 07:45:10;;;;;;;9.05;6.23;;;;;;;18.11;39.83;100932.52;;;;-61
2019/12/06 07:48:11;;;;;;;10.03;6.27;;;;;;;18.16;39.98;100941.13;;;;-45
2019/12/06 07:51:11;;;;;;;9.02;6.09;;;;;;;18.22;39.90;100945.81;;;;-52
2019/12/06 07:54:11;;;;;;;8.09;6.09;;;;;;;18.27;40.00;100945.36;;;;-48
2019/12/06 07:57:10;;;;;;;8.34;6.12;;;;;;;18.32;40.01;100949.82;;;;-49
2019/12/06 08:00:10;;;;;;;10.39;5.92;;;;;;;18.38;39.94;100948.61;;;;-57
2019/12/06 08:03:10;;;;;;;6.72;5.36;;;;;;;18.46;40.02;100954.59;;;;-47
2019/12/06 08:06:10;;;;;;;7.22;5.46;;;;;;;18.53;40.23;100952.88;;;;-49
2019/12/06 08:09:10;;;;;;;7.12;5.83;;;;;;;18.58;39.78;100955.23;;;;-51
2019/12/06 08:12:11;;;;;;;9.45;6.01;;;;;;;18.60;39.25;100953.05;;;;-51
2019/12/06 08:15:10;;;;;;;8.17;6.11;;;;;;;18.64;38.34;100954.16;;;;-49
2019/12/06 08:18:10;;;;;;;13.62;6.89;;;;;;;18.67;38.18;100957.62;;;;-51
2019/12/06 08:21:10;;;;;;;8.45;6.03;;;;;;;18.73;38.88;100961.02;;;;-55
2019/12/06 08:24:10;;;;;;;9.04;6.06;;;;;;;18.75;39.00;100963.92;;;;-51
2019/12/06 08:27:10;;;;;;;7.74;5.44;;;;;;;18.79;39.25;100965.10;;;;-51
2019/12/06 08:30:10;;;;;;;10.11;5.60;;;;;;;18.82;39.28;100963.98;;;;-48
2019/12/06 08:33:11;;;;;;;9.82;5.38;;;;;;;18.86;39.35;100966.37;;;;-49
2019/12/06 08:36:10;;;;;;;9.78;5.59;;;;;;;18.92;39.77;100960.30;;;;-54
2019/12/06 08:39:10;;;;;;;7.00;5.94;;;;;;;18.98;40.00;100954.59;;;;-51
2019/12/06 08:42:10;;;;;;;9.14;5.57;;;;;;;19.02;39.98;100950.37;;;;-44
2019/12/06 08:45:10;;;;;;;7.19;5.22;;;;;;;19.07;40.10;100954.16;;;;-48
2019/12/06 08:48:10;;;;;;;7.61;5.47;;;;;;;19.13;40.02;100956.61;;;;-46
2019/12/06 08:51:10;;;;;;;8.85;5.55;;;;;;;19.17;40.08;100955.16;;;;-48
2019/12/06 08:54:10;;;;;;;6.02;5.25;;;;;;;19.22;40.08;100954.05;;;;-48
2019/12/06 08:57:10;;;;;;;8.47;5.27;;;;;;;19.26;40.16;100951.69;;;;-49
2019/12/06 09:00:17;;;;;;;7.91;5.48;;;;;;;19.29;40.09;100948.63;;;;-44
2019/12/06 09:03:10;;;;;;;11.76;6.23;;;;;;;19.27;38.55;100953.98;;;;-48
2019/12/06 09:06:10;;;;;;;11.23;6.57;;;;;;;19.34;38.94;100950.84;;;;-54
2019/12/06 09:09:10;;;;;;;8.99;6.09;;;;;;;19.37;38.94;100945.94;;;;-50
2019/12/06 09:12:10;;;;;;;9.21;5.61;;;;;;;19.43;39.28;100950.98;;;;-51
2019/12/06 09:15:10;;;;;;;8.09;5.54;;;;;;;19.46;39.28;100949.92;;;;-56
2019/12/06 09:18:10;;;;;;;7.51;5.39;;;;;;;19.49;39.53;100946.56;;;;-46
2019/12/06 09:21:10;;;;;;;8.47;5.71;;;;;;;19.53;39.51;100949.05;;;;-46
2019/12/06 09:24:10;;;;;;;8.95;6.56;;;;;;;19.49;37.81;100951.70;;;;-51
2019/12/06 09:27:10;;;;;;;8.22;6.46;;;;;;;19.49;37.23;100948.17;;;;-53
2019/12/06 09:30:10;;;;;;;12.05;6.23;;;;;;;19.48;37.61;100949.98;;;;-49
2019/12/06 09:33:10;;;;;;;15.93;6.45;;;;;;;19.51;38.31;100949.22;;;;-50
2019/12/06 09:36:10;;;;;;;8.07;5.89;;;;;;;19.53;38.02;100951.06;;;;-51
2019/12/06 09:39:10;;;;;;;11.57;5.89;;;;;;;19.57;38.73;100952.69;;;;-51
2019/12/06 09:42:10;;;;;;;9.09;6.02;;;;;;;19.58;37.92;100944.95;;;;-50
2019/12/06 09:45:10;;;;;;;11.55;5.99;;;;;;;19.60;38.12;100942.89;;;;-51
2019/12/06 09:48:10;;;;;;;16.04;6.45;;;;;;;19.71;38.81;100937.95;;;;-52
2019/12/06 09:51:10;;;;;;;18.42;5.91;;;;;;;19.77;38.91;100931.09;;;;-49
2019/12/06 09:54:10;;;;;;;10.41;5.62;;;;;;;19.79;39.01;100923.48;;;;-50
2019/12/06 09:57:10;;;;;;;9.75;5.71;;;;;;;19.81;38.85;100915.72;;;;-50
2019/12/06 10:00:10;;;;;;;13.41;5.97;;;;;;;19.83;38.98;100911.29;;;;-48
2019/12/06 10:03:10;;;;;;;11.01;5.14;;;;;;;19.86;38.99;100908.31;;;;-47
2019/12/06 10:06:10;;;;;;;12.93;5.63;;;;;;;19.89;39.14;100898.68;;;;-46
2019/12/06 10:09:10;;;;;;;9.54;5.41;;;;;;;19.92;39.06;100890.47;;;;-49
2019/12/06 10:12:10;;;;;;;7.83;5.39;;;;;;;19.94;39.04;100887.22;;;;-50
2019/12/06 10:15:10;;;;;;;9.94;5.18;;;;;;;19.97;39.06;100883.84;;;;-50
2019/12/06 10:18:10;;;;;;;9.05;5.72;;;;;;;20.00;39.20;100879.54;;;;-49
2019/12/06 10:21:10;;;;;;;10.15;5.91;;;;;;;19.99;38.65;100871.34;;;;-45
2019/12/06 10:24:10;;;;;;;9.67;5.43;;;;;;;19.99;38.57;100869.16;;;;-45
2019/12/06 10:27:10;;;;;;;9.09;5.35;;;;;;;20.02;38.95;100861.20;;;;-50
2019/12/06 10:30:10;;;;;;;12.64;5.46;;;;;;;20.04;39.07;100852.31;;;;-51
2019/12/06 10:33:10;;;;;;;9.16;5.71;;;;;;;20.07;39.13;100845.07;;;;-52
2019/12/06 10:36:10;;;;;;;8.81;5.52;;;;;;;20.09;39.13;100842.48;;;;-58
2019/12/06 10:39:10;;;;;;;7.31;5.29;;;;;;;20.11;39.17;100832.59;;;;-56
2019/12/06 10:42:10;;;;;;;7.68;5.73;;;;;;;20.14;39.19;100830.72;;;;-54
2019/12/06 10:45:10;;;;;;;8.61;5.19;;;;;;;20.15;39.23;100822.99;;;;-56
2019/12/06 10:48:10;;;;;;;6.87;5.32;;;;;;;20.16;39.14;100818.74;;;;-55
2019/12/06 10:51:10;;;;;;;6.59;5.03;;;;;;;20.19;39.25;100818.45;;;;-59
2019/12/06 10:54:10;;;;;;;7.19;5.48;;;;;;;20.20;39.05;100810.05;;;;-51
2019/12/06 10:57:10;;;;;;;6.54;5.30;;;;;;;20.23;38.95;100811.09;;;;-46
2019/12/06 11:00:11;;;;;;;7.56;5.55;;;;;;;20.25;39.26;100808.03;;;;-51
2019/12/06 11:03:11;;;;;;;8.43;5.30;;;;;;;20.28;39.10;100807.70;;;;-45
2019/12/06 11:06:11;;;;;;;8.42;5.30;;;;;;;20.29;39.13;100801.34;;;;-51
2019/12/06 11:09:40;;;;;;;6.55;5.13;;;;;;;20.32;39.28;100799.70;;;;-47
2019/12/06 11:12:17;;;;;;;5.51;4.85;;;;;;;20.33;39.09;100800.42;;;;-49
2019/12/06 11:15:10;;;;;;;9.78;5.28;;;;;;;20.34;39.33;100796.17;;;;-51
2019/12/06 11:18:10;;;;;;;7.57;4.99;;;;;;;20.37;39.43;100794.73;;;;-50
2019/12/06 11:21:10;;;;;;;6.27;4.99;;;;;;;20.38;39.18;100787.06;;;;-50
2019/12/06 11:24:10;;;;;;;6.38;4.86;;;;;;;20.40;39.28;100781.42;;;;-55
2019/12/06 11:27:10;;;;;;;6.24;5.08;;;;;;;20.42;39.13;100777.52;;;;-52
2019/12/06 11:30:10;;;;;;;5.75;4.85;;;;;;;20.43;39.03;100772.83;;;;-51
2019/12/06 11:33:10;;;;;;;5.79;4.79;;;;;;;20.44;39.11;100761.64;;;;-52
2019/12/06 11:36:10;;;;;;;6.11;5.11;;;;;;;20.45;38.99;100756.59;;;;-48
2019/12/06 11:39:10;;;;;;;5.91;5.00;;;;;;;20.48;39.38;100751.08;;;;-53
2019/12/06 11:42:10;;;;;;;5.81;5.20;;;;;;;20.48;38.97;100750.74;;;;-51
2019/12/06 11:45:10;;;;;;;7.95;5.13;;;;;;;20.49;39.07;100740.42;;;;-61
2019/12/06 11:48:10;;;;;;;9.56;5.21;;;;;;;20.54;39.24;100740.55;;;;-50
2019/12/06 11:51:10;;;;;;;5.91;4.65;;;;;;;20.52;39.04;100730.72;;;;-57
2019/12/06 11:54:10;;;;;;;6.13;4.53;;;;;;;20.51;39.03;100729.44;;;;-50
2019/12/06 11:57:10;;;;;;;6.87;4.68;;;;;;;20.51;39.03;100725.65;;;;-50
2019/12/06 12:00:10;;;;;;;5.83;4.79;;;;;;;20.50;39.01;100721.84;;;;-46
2019/12/06 12:03:10;;;;;;;5.18;4.65;;;;;;;20.50;39.06;100717.48;;;;-46
2019/12/06 12:06:10;;;;;;;6.33;4.71;;;;;;;20.50;39.08;100712.34;;;;-45
2019/12/06 12:09:10;;;;;;;6.35;4.68;;;;;;;20.50;39.13;100707.05;;;;-46
2019/12/06 12:12:10;;;;;;;5.87;4.40;;;;;;;20.50;39.06;100700.00;;;;-47
2019/12/06 12:15:10;;;;;;;9.88;4.69;;;;;;;20.53;39.11;100687.61;;;;-48
2019/12/06 12:18:10;;;;;;;6.65;4.55;;;;;;;20.53;39.11;100678.86;;;;-49
2019/12/06 12:21:10;;;;;;;6.87;4.55;;;;;;;20.53;39.11;100673.32;;;;-54
2019/12/06 12:24:10;;;;;;;6.43;4.36;;;;;;;20.55;39.16;100666.89;;;;-50
2019/12/06 12:27:10;;;;;;;5.23;4.63;;;;;;;20.55;39.14;100664.81;;;;-45
2019/12/06 12:30:10;;;;;;;6.23;4.71;;;;;;;20.58;39.07;100652.42;;;;-48
2019/12/06 12:33:11;;;;;;;7.61;4.61;;;;;;;20.57;39.01;100653.59;;;;-48
2019/12/06 12:36:10;;;;;;;6.50;4.77;;;;;;;20.56;39.00;100641.53;;;;-48
2019/12/06 12:39:10;;;;;;;6.43;4.65;;;;;;;20.57;38.93;100638.99;;;;-49
2019/12/06 12:42:10;;;;;;;5.51;4.51;;;;;;;20.56;38.96;100634.98;;;;-48
2019/12/06 12:45:10;;;;;;;5.65;4.61;;;;;;;20.57;38.99;100631.07;;;;-57
2019/12/06 12:48:10;;;;;;;5.99;4.61;;;;;;;20.56;38.91;100623.92;;;;-56
2019/12/06 12:51:10;;;;;;;5.65;4.76;;;;;;;20.56;38.89;100622.30;;;;-56
2019/12/06 12:54:10;;;;;;;5.17;4.57;;;;;;;20.55;38.90;100611.13;;;;-57
2019/12/06 12:57:10;;;;;;;6.07;4.51;;;;;;;20.56;38.86;100607.64;;;;-57
2019/12/06 13:00:10;;;;;;;4.87;4.37;;;;;;;20.57;38.80;100594.16;;;;-50
2019/12/06 13:03:11;;;;;;;5.75;4.59;;;;;;;20.57;38.90;100582.84;;;;-51
2019/12/06 13:06:10;;;;;;;5.52;4.49;;;;;;;20.57;38.88;100570.83;;;;-51
2019/12/06 13:09:10;;;;;;;4.93;4.27;;;;;;;20.57;38.90;100563.28;;;;-50
2019/12/06 13:12:10;;;;;;;7.69;4.57;;;;;;;20.57;38.86;100562.04;;;;-56
2019/12/06 13:15:10;;;;;;;5.15;4.33;;;;;;;20.58;38.82;100555.55;;;;-56
2019/12/06 13:18:11;;;;;;;4.99;4.47;;;;;;;20.58;38.87;100554.20;;;;-48
2019/12/06 13:21:10;;;;;;;5.35;4.33;;;;;;;20.61;39.19;100549.69;;;;-50
2019/12/06 13:24:10;;;;;;;5.35;4.48;;;;;;;20.63;39.47;100541.98;;;;-44
2019/12/06 13:27:10;;;;;;;5.68;4.47;;;;;;;20.64;39.43;100543.03;;;;-47
2019/12/06 13:30:10;;;;;;;5.95;4.70;;;;;;;20.71;39.45;100542.14;;;;-48
2019/12/06 13:33:10;;;;;;;7.34;4.68;;;;;;;20.73;39.47;100540.38;;;;-45
2019/12/06 13:36:10;;;;;;;8.89;6.21;;;;;;;20.66;37.05;100531.77;;;;-45
2019/12/06 13:39:10;;;;;;;8.03;6.74;;;;;;;20.65;37.23;100528.70;;;;-47
2019/12/06 13:42:10;;;;;;;10.93;5.81;;;;;;;20.63;37.42;100524.44;;;;-53
2019/12/06 13:45:10;;;;;;;9.00;5.69;;;;;;;20.65;38.00;100518.47;;;;-51
2019/12/06 13:48:10;;;;;;;7.95;5.53;;;;;;;20.66;38.13;100519.12;;;;-48
2019/12/06 13:51:10;;;;;;;7.25;5.55;;;;;;;20.70;38.57;100513.64;;;;-55
2019/12/06 13:54:10;;;;;;;7.19;5.69;;;;;;;20.69;38.22;100511.76;;;;-53
2019/12/06 13:57:10;;;;;;;9.57;5.12;;;;;;;20.72;38.47;100508.86;;;;-55
2019/12/06 14:00:10;;;;;;;7.09;5.09;;;;;;;20.73;38.41;100504.13;;;;-49
2019/12/06 14:03:10;;;;;;;6.85;5.17;;;;;;;20.73;38.66;100498.77;;;;-48
2019/12/06 14:06:10;;;;;;;6.85;5.09;;;;;;;20.74;38.67;100496.02;;;;-51
2019/12/06 14:09:10;;;;;;;8.95;5.21;;;;;;;20.76;38.84;100491.06;;;;-52
2019/12/06 14:12:10;;;;;;;5.26;4.75;;;;;;;20.77;38.80;100491.94;;;;-51
2019/12/06 14:15:10;;;;;;;7.05;4.75;;;;;;;20.79;39.15;100485.74;;;;-48
2019/12/06 14:18:10;;;;;;;6.78;4.86;;;;;;;20.79;38.73;100482.22;;;;-48
2019/12/06 14:21:10;;;;;;;8.04;4.75;;;;;;;20.80;39.09;100480.95;;;;-43
2019/12/06 14:24:11;;;;;;;6.05;4.87;;;;;;;20.81;39.04;100473.33;;;;-45
2019/12/06 14:27:10;;;;;;;6.47;4.85;;;;;;;20.83;39.00;100481.30;;;;-43
2019/12/06 14:30:10;;;;;;;5.63;5.06;;;;;;;20.84;39.03;100485.97;;;;-53
2019/12/06 14:33:10;;;;;;;5.69;4.78;;;;;;;20.85;39.00;100480.81;;;;-51
2019/12/06 14:36:10;;;;;;;6.75;4.71;;;;;;;20.87;38.87;100476.82;;;;-52
2019/12/06 14:39:10;;;;;;;5.59;4.72;;;;;;;20.89;39.04;100475.56;;;;-55
2019/12/06 14:42:10;;;;;;;6.61;4.83;;;;;;;20.90;39.05;100468.88;;;;-55
2019/12/06 14:45:13;;;;;;;5.58;4.57;;;;;;;20.91;39.08;100471.44;;;;-44
2019/12/06 14:48:45;;;;;;;5.93;4.49;;;;;;;20.92;39.10;100460.67;;;;-49
2019/12/06 14:51:10;;;;;;;5.45;4.81;;;;;;;20.92;39.03;100458.48;;;;-50
2019/12/06 14:54:10;;;;;;;5.22;4.47;;;;;;;20.92;38.96;100449.82;;;;-51
2019/12/06 14:57:10;;;;;;;5.35;4.80;;;;;;;20.95;38.94;100458.06;;;;-49
2019/12/06 15:00:10;;;;;;;5.33;4.37;;;;;;;20.96;39.11;100452.77;;;;-51
2019/12/06 15:03:10;;;;;;;5.20;4.41;;;;;;;20.97;39.26;100459.75;;;;-51
2019/12/06 15:06:10;;;;;;;6.04;4.55;;;;;;;20.99;39.44;100452.44;;;;-49
2019/12/06 15:09:10;;;;;;;6.52;4.75;;;;;;;20.99;38.86;100450.70;;;;-51
2019/12/06 15:12:10;;;;;;;5.65;4.40;;;;;;;20.99;39.08;100449.75;;;;-51
2019/12/06 15:15:10;;;;;;;5.07;4.31;;;;;;;20.99;39.04;100446.90;;;;-46
2019/12/06 15:18:10;;;;;;;5.84;4.03;;;;;;;20.97;38.97;100439.44;;;;-55
2019/12/06 15:21:10;;;;;;;4.71;4.21;;;;;;;20.95;39.02;100430.02;;;;-54
2019/12/06 15:24:10;;;;;;;4.72;4.24;;;;;;;20.95;39.04;100430.96;;;;-50
2019/12/06 15:27:10;;;;;;;4.48;4.08;;;;;;;20.95;39.08;100430.19;;;;-51
2019/12/06 15:30:10;;;;;;;4.78;4.13;;;;;;;20.94;39.05;100424.55;;;;-46
2019/12/06 15:33:10;;;;;;;5.10;3.89;;;;;;;20.93;39.06;100418.41;;;;-55
2019/12/06 15:36:10;;;;;;;4.43;4.02;;;;;;;20.93;39.02;100416.02;;;;-51
2019/12/06 15:39:10;;;;;;;4.96;4.08;;;;;;;20.92;39.08;100416.92;;;;-51
2019/12/06 15:42:10;;;;;;;4.33;3.93;;;;;;;20.93;39.06;100419.20;;;;-50
2019/12/06 15:45:10;;;;;;;4.69;4.03;;;;;;;20.92;39.08;100408.09;;;;-51
2019/12/06 15:48:10;;;;;;;6.11;4.09;;;;;;;20.92;39.07;100417.59;;;;-50
2019/12/06 15:51:10;;;;;;;4.13;3.73;;;;;;;20.92;39.10;100422.36;;;;-47
2019/12/06 15:54:10;;;;;;;4.71;3.96;;;;;;;20.91;39.16;100414.03;;;;-49
2019/12/06 15:57:10;;;;;;;4.51;3.89;;;;;;;20.92;39.11;100408.36;;;;-50
2019/12/06 16:00:10;;;;;;;4.17;3.77;;;;;;;20.92;39.03;100417.08;;;;-50
2019/12/06 16:03:10;;;;;;;4.81;3.88;;;;;;;20.91;39.13;100412.78;;;;-49
2019/12/06 16:06:10;;;;;;;4.15;3.70;;;;;;;20.92;39.13;100411.38;;;;-54
2019/12/06 16:09:10;;;;;;;4.13;3.75;;;;;;;20.92;39.14;100411.27;;;;-54
2019/12/06 16:12:10;;;;;;;4.29;3.89;;;;;;;20.92;39.15;100409.27;;;;-54
2019/12/06 16:15:10;;;;;;;4.27;3.70;;;;;;;20.92;39.16;100405.23;;;;-55
2019/12/06 16:18:10;;;;;;;5.06;3.93;;;;;;;20.92;39.04;100411.31;;;;-51
2019/12/06 16:21:10;;;;;;;4.77;3.83;;;;;;;20.92;39.13;100410.44;;;;-51
2019/12/06 16:24:10;;;;;;;4.92;3.97;;;;;;;20.92;39.16;100409.77;;;;-51
2019/12/06 16:27:10;;;;;;;4.20;3.80;;;;;;;20.93;39.13;100407.78;;;;-50
2019/12/06 16:30:10;;;;;;;4.09;3.62;;;;;;;20.91;39.10;100405.06;;;;-51
2019/12/06 16:33:10;;;;;;;4.65;3.77;;;;;;;20.92;39.21;100396.77;;;;-51
2019/12/06 16:36:10;;;;;;;4.26;3.81;;;;;;;20.91;39.19;100398.08;;;;-50
2019/12/06 16:39:10;;;;;;;4.07;3.67;;;;;;;20.92;39.19;100401.07;;;;-51
2019/12/06 16:42:10;;;;;;;4.37;3.96;;;;;;;20.92;39.18;100401.81;;;;-51
2019/12/06 16:45:10;;;;;;;4.19;3.79;;;;;;;20.92;39.13;100398.11;;;;-51
2019/12/06 16:48:10;;;;;;;3.83;3.45;;;;;;;20.91;39.23;100395.39;;;;-51
2019/12/06 16:51:10;;;;;;;4.48;3.89;;;;;;;20.92;39.23;100395.09;;;;-50
2019/12/06 16:54:10;;;;;;;4.13;3.73;;;;;;;20.92;39.23;100388.61;;;;-50
2019/12/06 16:57:10;;;;;;;4.05;3.66;;;;;;;20.92;39.21;100382.00;;;;-51
2019/12/06 17:00:10;;;;;;;6.89;3.71;;;;;;;20.96;39.34;100379.97;;;;-47
2019/12/06 17:03:10;;;;;;;4.15;3.71;;;;;;;20.96;39.56;100380.91;;;;-51
2019/12/06 17:06:10;;;;;;;4.28;3.88;;;;;;;21.02;39.56;100388.75;;;;-50
2019/12/06 17:09:10;;;;;;;4.69;3.89;;;;;;;21.02;39.69;100381.27;;;;-51
2019/12/06 17:12:19;;;;;;;3.97;3.57;;;;;;;21.02;39.58;100382.20;;;;-51